Time;durP1;ratioP1;P1;durP2;ratioP2;P2;SDS_P1;SDS_P2;PMS_P1;PMS_P2;Temp;Humidity;BMP_temperature;BMP_pressure;BME280_temperature;BME280_humidity;BME280_pressure;Samples;Min_cycle;Max_cycle;Signal;HPM_P1;HPM_P2
2022/01/11 00:00:37;;;;;;;52.15;21.17;;;;;;;-0.50;100.00;97705.81;2081883;28;20813;-60
2022/01/11 00:01:43;;;;;;;43.38;21.58;;;;;;;-0.54;100.00;97691.25;2081622;28;20197;-62
2022/01/11 00:02:45;;;;;;;48.95;21.83;;;;;;;-0.72;100.00;97661.38;2080869;28;20234;-62
2022/01/11 00:03:46;;;;;;;45.50;21.00;;;;;;;-0.66;100.00;97677.59;2081335;28;20239;-62
2022/01/11 00:04:48;;;;;;;41.13;21.42;;;;;;;-0.50;100.00;97701.50;2081667;28;20261;-62
2022/01/11 00:07:16;;;;;;;49.78;20.48;;;;;;;-0.56;100.00;97705.84;2047994;29;20224;-62
2022/01/11 00:08:19;;;;;;;37.55;19.83;;;;;;;-0.75;100.00;97676.81;2079555;28;20294;-62
2022/01/11 00:10:32;;;;;;;49.80;21.77;;;;;;;-0.74;100.00;97705.09;2081671;28;20579;-62
2022/01/11 00:11:35;;;;;;;36.40;18.48;;;;;;;-0.74;100.00;97709.41;2081658;28;20189;-61
2022/01/11 00:12:37;;;;;;;41.80;20.15;;;;;;;-0.65;100.00;97697.34;2078582;28;20292;-62
2022/01/11 00:13:40;;;;;;;43.90;19.27;;;;;;;-0.63;100.00;97690.47;2081273;28;20211;-62
2022/01/11 00:14:42;;;;;;;41.75;19.58;;;;;;;-1.02;99.87;97638.41;2081571;28;20193;-62
2022/01/11 00:15:45;;;;;;;35.35;20.38;;;;;;;-0.71;99.56;97691.34;2081640;28;20201;-62
2022/01/11 00:16:46;;;;;;;41.95;22.02;;;;;;;-0.79;99.83;97696.56;2081424;28;20287;-62
2022/01/11 00:17:48;;;;;;;48.00;21.50;;;;;;;-0.87;100.00;97694.03;2081410;28;20193;-62
2022/01/11 00:18:50;;;;;;;49.20;23.20;;;;;;;-1.37;100.00;97607.75;2081101;28;20220;-62
2022/01/11 00:19:51;;;;;;;46.08;21.35;;;;;;;-0.79;100.00;97691.41;2080984;28;20204;-62
2022/01/11 00:20:54;;;;;;;40.42;21.45;;;;;;;-0.73;100.00;97699.09;2081770;28;20197;-62
2022/01/11 00:21:57;;;;;;;47.92;21.77;;;;;;;-0.69;100.00;97694.78;2081733;28;20196;-62
2022/01/11 00:25:23;;;;;;;37.65;19.48;;;;;;;-0.61;100.00;97696.44;2081460;28;20196;-62
2022/01/11 00:26:25;;;;;;;45.45;19.33;;;;;;;-0.67;100.00;97695.63;2080374;28;20189;-62
2022/01/11 00:27:26;;;;;;;34.30;18.42;;;;;;;-0.69;100.00;97695.63;2081551;28;20213;-61
2022/01/11 00:28:29;;;;;;;39.63;18.50;;;;;;;-0.84;100.00;97667.44;2081115;28;20201;-62
2022/01/11 00:29:32;;;;;;;40.90;18.58;;;;;;;-0.62;100.00;97699.03;2081486;28;20228;-62
2022/01/11 00:30:37;;;;;;;44.00;19.42;;;;;;;-0.56;100.00;97696.41;2081540;28;20642;-62
2022/01/11 00:31:39;;;;;;;36.90;17.77;;;;;;;-0.51;100.00;97691.22;2081678;28;20209;-62
2022/01/11 00:32:46;;;;;;;44.70;19.85;;;;;;;-0.48;100.00;97702.34;2081513;28;20517;-62
2022/01/11 00:33:49;;;;;;;38.65;16.42;;;;;;;-0.48;100.00;97699.78;2081110;28;20220;-62
2022/01/11 00:34:54;;;;;;;33.28;17.70;;;;;;;-0.50;100.00;97701.50;2081442;28;20590;-62
2022/01/11 00:35:58;;;;;;;28.90;16.83;;;;;;;-0.54;100.00;97674.09;2081546;28;20204;-62
2022/01/11 00:36:59;;;;;;;32.35;16.70;;;;;;;-0.51;100.00;97701.50;2079916;28;20193;-62
2022/01/11 00:38:01;;;;;;;39.20;17.35;;;;;;;-0.53;100.00;97700.66;2081615;28;20653;-62
2022/01/11 00:39:02;;;;;;;31.30;16.88;;;;;;;-0.42;100.00;97699.72;2081035;28;20720;-62
2022/01/11 00:40:06;;;;;;;30.58;17.10;;;;;;;-0.45;100.00;97694.63;2081415;28;20196;-62
2022/01/11 00:41:11;;;;;;;37.33;17.35;;;;;;;-0.49;100.00;97700.66;2080186;28;20216;-62
2022/01/11 00:42:14;;;;;;;33.42;17.05;;;;;;;-0.53;100.00;97690.38;2080095;28;20208;-62
2022/01/11 00:43:21;;;;;;;30.45;15.68;;;;;;;-0.41;100.00;97701.44;2081265;28;20204;-62
2022/01/11 00:44:23;;;;;;;33.58;17.33;;;;;;;-0.43;100.00;97697.19;2079949;28;20236;-60
2022/01/11 00:45:26;;;;;;;48.65;18.65;;;;;;;-0.46;100.00;97698.03;2080545;28;20208;-60
2022/01/11 00:46:28;;;;;;;42.97;16.63;;;;;;;-0.49;100.00;97702.34;2081029;28;20216;-60
2022/01/11 00:47:29;;;;;;;36.10;19.55;;;;;;;-0.57;100.00;97699.81;2081450;28;20593;-60
2022/01/11 00:48:31;;;;;;;38.55;16.75;;;;;;;-0.43;100.00;97707.47;2080862;28;20510;-60
2022/01/11 00:49:34;;;;;;;36.47;17.45;;;;;;;-0.56;100.00;97687.84;2081306;28;20209;-60
2022/01/11 00:50:39;;;;;;;39.60;17.60;;;;;;;-0.49;100.00;97700.66;2081367;28;20202;-60
2022/01/11 00:51:40;;;;;;;38.28;18.65;;;;;;;-0.41;100.00;97698.88;2081447;28;20208;-60
2022/01/11 00:52:42;;;;;;;39.80;18.95;;;;;;;-0.47;100.00;97680.03;2081445;28;20205;-60
2022/01/11 00:53:43;;;;;;;39.92;17.90;;;;;;;-0.40;100.00;97697.16;2080949;28;20201;-61
2022/01/11 00:54:44;;;;;;;34.95;17.58;;;;;;;-0.44;100.00;97708.34;2081336;28;20198;-60
2022/01/11 00:55:47;;;;;;;35.40;17.17;;;;;;;-0.48;100.00;97670.63;2081382;28;20529;-60
2022/01/11 00:56:48;;;;;;;40.42;17.10;;;;;;;-0.32;100.00;97686.78;2080958;28;20189;-60
2022/01/11 00:57:50;;;;;;;36.92;17.45;;;;;;;-0.47;100.00;97677.44;2081487;28;20540;-60
2022/01/11 00:58:52;;;;;;;35.55;16.27;;;;;;;-0.36;100.00;97703.13;2080881;28;20225;-60
2022/01/11 00:59:53;;;;;;;34.03;17.30;;;;;;;-0.40;100.00;97692.84;2081263;28;20196;-60
2022/01/11 01:00:55;;;;;;;36.47;17.88;;;;;;;-0.40;100.00;97689.41;2081015;28;20193;-60
2022/01/11 01:01:57;;;;;;;34.83;15.80;;;;;;;-0.36;100.00;97695.41;2081414;28;20197;-60
2022/01/11 01:02:59;;;;;;;34.85;16.08;;;;;;;-0.46;100.00;97695.47;2081409;28;20725;-60
2022/01/11 01:04:01;;;;;;;35.95;17.40;;;;;;;-0.51;100.00;97697.25;2080786;28;20214;-62
2022/01/11 01:05:04;;;;;;;39.35;18.80;;;;;;;-0.80;100.00;97662.25;2081213;28;20208;-62
2022/01/11 01:06:05;;;;;;;35.55;17.75;;;;;;;-0.82;100.00;97656.28;2080891;28;20244;-62
2022/01/11 01:07:07;;;;;;;30.98;17.40;;;;;;;-0.62;100.00;97689.56;2080684;28;20194;-62
2022/01/11 01:08:09;;;;;;;36.15;18.35;;;;;;;-0.52;100.00;97690.38;2080898;28;20204;-62
2022/01/11 01:09:10;;;;;;;35.78;17.52;;;;;;;-0.58;100.00;97650.97;2080242;28;20230;-62
2022/01/11 01:10:26;;;;;;;33.90;16.73;;;;;;;-0.28;100.00;97699.59;2080746;28;20202;-63
2022/01/11 01:11:28;;;;;;;33.72;17.05;;;;;;;-0.30;99.99;97697.94;2080742;28;20208;-62
2022/01/11 01:12:30;;;;;;;37.78;19.25;;;;;;;-0.43;99.02;97684.31;2080934;28;20205;-62
2022/01/11 01:13:32;;;;;;;37.15;19.80;;;;;;;-0.47;98.92;97695.47;2080332;28;20572;-62
2022/01/11 01:14:33;;;;;;;42.75;21.77;;;;;;;-0.52;98.63;97705.81;2080765;28;20201;-62
2022/01/11 01:15:36;;;;;;;36.55;20.17;;;;;;;-0.88;98.49;97660.59;2080774;28;20208;-62
2022/01/11 01:16:39;;;;;;;38.92;19.83;;;;;;;-0.62;98.71;97704.16;2080833;28;20197;-62
2022/01/11 01:17:40;;;;;;;41.78;23.35;;;;;;;-0.68;98.68;97707.63;2080798;28;20189;-62
2022/01/11 01:18:42;;;;;;;44.75;21.98;;;;;;;-0.68;99.89;97706.78;2080382;28;20212;-62
2022/01/11 01:19:44;;;;;;;47.03;23.13;;;;;;;-0.65;99.83;97707.63;2080818;28;20201;-62
2022/01/11 01:20:45;;;;;;;50.15;21.25;;;;;;;-0.66;99.64;97712.78;2080122;28;20671;-62
2022/01/11 01:21:49;;;;;;;52.08;22.67;;;;;;;-0.81;99.57;97703.44;2080737;28;20208;-62
2022/01/11 01:22:51;;;;;;;49.30;24.52;;;;;;;-0.90;100.00;97682.88;2080736;28;20319;-62
2022/01/11 01:23:52;;;;;;;44.60;21.95;;;;;;;-0.62;100.00;97702.44;2080315;28;20220;-62
2022/01/11 01:24:54;;;;;;;42.05;21.42;;;;;;;-1.25;99.81;97612.81;2080592;28;20208;-62
2022/01/11 01:25:56;;;;;;;52.80;23.98;;;;;;;-0.75;99.59;97707.69;2080346;28;20197;-62
2022/01/11 01:26:57;;;;;;;41.28;20.35;;;;;;;-0.69;99.35;97708.47;2080391;28;20197;-62
2022/01/11 01:27:59;;;;;;;38.55;20.02;;;;;;;-0.69;100.00;97710.22;2080418;28;20217;-62
2022/01/11 01:29:02;;;;;;;52.92;24.55;;;;;;;-0.86;100.00;97697.47;2079765;28;20256;-62
2022/01/11 01:30:06;;;;;;;52.42;23.40;;;;;;;-0.65;100.00;97712.78;2080503;28;20262;-62
2022/01/11 01:31:07;;;;;;;37.97;21.55;;;;;;;-0.90;99.30;97711.19;2080594;28;20196;-62
2022/01/11 01:32:09;;;;;;;41.47;21.45;;;;;;;-0.96;100.00;97703.50;2079936;28;20969;-62
2022/01/11 01:33:13;;;;;;;45.35;21.73;;;;;;;-0.73;100.00;97714.50;2079648;28;20228;-62
2022/01/11 01:34:15;;;;;;;48.08;21.98;;;;;;;-0.63;100.00;97708.47;2080048;28;20225;-62
2022/01/11 01:35:19;;;;;;;41.65;21.30;;;;;;;-0.65;100.00;97712.78;2080736;28;20539;-62
2022/01/11 01:36:21;;;;;;;56.78;22.63;;;;;;;-0.65;100.00;97715.34;2080742;28;20205;-62
2022/01/11 01:37:23;;;;;;;40.88;19.95;;;;;;;-0.64;100.00;97716.19;2080548;28;20201;-62
2022/01/11 01:38:25;;;;;;;39.50;20.27;;;;;;;-0.57;100.00;97710.13;2079867;28;20197;-62
2022/01/11 01:39:27;;;;;;;53.55;22.52;;;;;;;-0.33;100.00;97711.69;2080417;28;20240;-62
2022/01/11 01:40:35;;;;;;;39.20;19.27;;;;;;;-0.46;99.91;97715.22;2080792;28;20201;-62
2022/01/11 01:41:42;;;;;;;46.78;21.63;;;;;;;-0.63;100.00;97718.75;2079996;28;20197;-62
2022/01/11 01:42:47;;;;;;;43.40;21.88;;;;;;;-0.60;100.00;97718.72;2079545;28;20305;-62
2022/01/11 01:43:55;;;;;;;38.60;19.85;;;;;;;-0.47;100.00;97722.09;2079901;28;20223;-62
2022/01/11 01:45:00;;;;;;;39.67;21.08;;;;;;;-0.80;100.00;97675.13;2079908;28;20256;-62
2022/01/11 01:46:01;;;;;;;47.95;21.85;;;;;;;-0.45;100.00;97722.06;2080470;28;20197;-62
2022/01/11 01:47:03;;;;;;;38.08;19.10;;;;;;;-0.63;99.27;97713.63;2078293;28;20200;-62
2022/01/11 01:48:06;;;;;;;38.78;19.08;;;;;;;-0.56;100.00;97717.00;2080524;28;20209;-62
2022/01/11 01:49:15;;;;;;;36.55;20.55;;;;;;;-0.52;100.00;97717.84;2080032;28;20227;-63
2022/01/11 01:50:16;;;;;;;36.55;17.27;;;;;;;-0.60;100.00;97712.72;2080543;28;20204;-62
2022/01/11 01:51:18;;;;;;;40.95;19.20;;;;;;;-0.65;100.00;97717.91;2080530;28;20528;-62
2022/01/11 01:52:20;;;;;;;32.92;18.85;;;;;;;-0.89;100.00;97720.63;2080584;28;20201;-62
2022/01/11 01:53:22;;;;;;;36.50;18.13;;;;;;;-0.84;100.00;97719.75;2080603;28;20209;-62
2022/01/11 01:54:25;;;;;;;44.60;19.80;;;;;;;-0.67;100.00;97716.19;2079152;28;20221;-62
2022/01/11 01:55:26;;;;;;;34.97;17.85;;;;;;;-0.52;100.00;97725.56;2080500;28;20197;-62
2022/01/11 01:56:29;;;;;;;39.17;18.95;;;;;;;-0.42;100.00;97722.88;2080428;28;20300;-62
2022/01/11 01:57:33;;;;;;;41.15;19.30;;;;;;;-0.90;100.00;97650.34;2079418;28;20206;-62
2022/01/11 01:58:35;;;;;;;39.60;18.83;;;;;;;-0.50;100.00;97708.38;2079972;28;20663;-62
2022/01/11 01:59:37;;;;;;;34.08;18.42;;;;;;;-0.36;100.00;97722.00;2079561;28;20205;-62
2022/01/11 02:00:42;;;;;;;34.80;18.25;;;;;;;-0.47;100.00;97716.94;2080550;28;20197;-62
2022/01/11 02:01:46;;;;;;;35.83;18.20;;;;;;;-0.35;100.00;97726.28;2079613;28;20547;-62
2022/01/11 02:02:48;;;;;;;37.05;18.77;;;;;;;-0.35;100.00;97735.72;2079443;28;20224;-62
2022/01/11 02:03:50;;;;;;;37.08;18.38;;;;;;;-0.25;100.00;97722.78;2079987;28;20229;-62
2022/01/11 02:04:53;;;;;;;42.03;16.60;;;;;;;-0.38;100.00;97728.03;2080455;28;20196;-62
2022/01/11 02:05:55;;;;;;;33.40;16.73;;;;;;;-0.42;100.00;97729.75;2043562;28;1044340;-62
2022/01/11 02:06:56;;;;;;;35.55;16.90;;;;;;;-0.37;100.00;97729.72;2080788;28;20539;-62
2022/01/11 02:07:58;;;;;;;33.72;17.17;;;;;;;-0.37;100.00;97733.16;2080525;28;20209;-62
2022/01/11 02:08:59;;;;;;;28.23;15.57;;;;;;;-0.44;100.00;97706.59;2080194;28;20224;-62
2022/01/11 02:10:04;;;;;;;29.35;15.85;;;;;;;-0.58;100.00;97685.28;2080617;28;20216;-62
2022/01/11 02:11:07;;;;;;;30.67;15.00;;;;;;;-0.50;100.00;97716.09;2080093;28;20233;-62
2022/01/11 02:12:09;;;;;;;33.53;16.10;;;;;;;-0.39;100.00;97732.34;2080744;28;20583;-62
2022/01/11 02:13:10;;;;;;;28.35;14.55;;;;;;;-0.39;100.00;97722.03;2080582;28;20205;-62
2022/01/11 02:14:12;;;;;;;40.85;15.77;;;;;;;-0.40;100.00;97733.19;2080255;28;20228;-62
2022/01/11 02:15:14;;;;;;;33.38;16.00;;;;;;;-0.58;100.00;97699.88;2080749;28;20197;-62
2022/01/11 02:16:19;;;;;;;28.25;15.93;;;;;;;-0.34;100.00;97730.56;2080638;28;20204;-62
2022/01/11 02:17:20;;;;;;;32.50;16.10;;;;;;;-0.31;100.00;97730.53;2079089;28;20254;-62
2022/01/11 02:18:25;;;;;;;30.98;15.52;;;;;;;-0.69;100.00;97705.91;2080766;28;20201;-62
2022/01/11 02:19:27;;;;;;;31.15;14.73;;;;;;;-0.41;100.00;97734.06;2080517;28;20206;-62
2022/01/11 02:20:28;;;;;;;37.50;16.90;;;;;;;-0.32;100.00;97741.69;2080665;28;20197;-62
2022/01/11 02:21:30;;;;;;;39.42;19.02;;;;;;;-0.48;100.00;97727.25;2080672;28;20578;-62
2022/01/11 02:22:32;;;;;;;34.42;18.17;;;;;;;-0.54;99.97;97728.13;2080573;28;20324;-62
2022/01/11 02:23:34;;;;;;;42.83;18.48;;;;;;;-0.71;100.00;97717.94;2080197;28;20740;-60
2022/01/11 02:24:35;;;;;;;34.90;17.08;;;;;;;-0.79;100.00;97701.69;2071803;28;20261;-60
2022/01/11 02:25:38;;;;;;;37.47;17.85;;;;;;;-0.63;100.00;97731.63;2070440;28;20198;-60
2022/01/11 02:26:39;;;;;;;39.75;17.83;;;;;;;-0.70;100.00;97718.81;2080174;28;20197;-60
2022/01/11 02:27:41;;;;;;;38.65;18.73;;;;;;;-0.89;100.00;97688.03;2078705;28;20204;-60
2022/01/11 02:28:42;;;;;;;45.80;18.80;;;;;;;-0.75;100.00;97705.97;2079683;28;20504;-60
2022/01/11 02:29:44;;;;;;;33.33;17.77;;;;;;;-0.56;100.00;97734.16;2080539;28;20189;-60
2022/01/11 02:30:47;;;;;;;42.90;19.15;;;;;;;-0.62;100.00;97730.75;2080481;28;20193;-60
2022/01/11 02:31:48;;;;;;;37.15;19.17;;;;;;;-0.70;100.00;97711.09;2080370;28;20197;-60
2022/01/11 02:32:51;;;;;;;34.60;17.35;;;;;;;-0.68;100.00;97717.94;2080312;28;20235;-62
2022/01/11 02:33:58;;;;;;;38.53;17.50;;;;;;;-0.48;100.00;97740.94;2080364;28;20235;-62
2022/01/11 02:34:59;;;;;;;31.85;16.25;;;;;;;-0.50;100.00;97729.81;2078989;28;20205;-62
2022/01/11 02:36:09;;;;;;;30.45;16.52;;;;;;;-0.51;100.00;97738.41;2080707;28;20197;-62
2022/01/11 02:37:10;;;;;;;34.63;17.13;;;;;;;-0.54;100.00;97740.16;2080642;28;20208;-62
2022/01/11 02:38:12;;;;;;;28.45;16.42;;;;;;;-0.55;100.00;97735.84;2080629;28;20640;-63
2022/01/11 02:39:13;;;;;;;34.75;16.48;;;;;;;-0.60;100.00;97731.59;2079964;28;20229;-62
2022/01/11 02:40:15;;;;;;;35.40;16.70;;;;;;;-0.57;100.00;97735.00;2079942;28;20224;-63
2022/01/11 02:41:17;;;;;;;36.78;17.40;;;;;;;-0.65;100.00;97741.06;2080558;28;20730;-62
2022/01/11 02:42:19;;;;;;;38.65;19.48;;;;;;;-0.53;100.00;97737.56;2080422;28;20221;-62
2022/01/11 02:43:21;;;;;;;32.97;17.75;;;;;;;-0.45;100.00;97734.91;2080711;28;20208;-62
2022/01/11 02:44:23;;;;;;;34.72;15.80;;;;;;;-0.47;100.00;97737.53;2079438;28;20228;-62
2022/01/11 02:45:24;;;;;;;33.70;16.85;;;;;;;-0.48;100.00;97733.22;2078832;28;20200;-60
2022/01/11 02:46:27;;;;;;;31.08;17.23;;;;;;;-0.50;100.00;97734.13;2080658;28;20208;-60
2022/01/11 02:47:29;;;;;;;32.65;16.45;;;;;;;-0.47;100.00;97729.81;2080583;28;20197;-60
2022/01/11 02:48:30;;;;;;;38.13;15.45;;;;;;;-0.46;100.00;97736.66;2079899;28;20301;-60
2022/01/11 02:49:32;;;;;;;33.70;17.48;;;;;;;-0.46;100.00;97731.50;2080733;28;20326;-61
2022/01/11 02:50:34;;;;;;;34.03;15.75;;;;;;;-0.48;100.00;97725.50;2080391;28;20197;-60
2022/01/11 02:51:36;;;;;;;32.90;16.75;;;;;;;-0.39;100.00;97734.91;2079958;28;20685;-62
2022/01/11 02:52:38;;;;;;;37.30;16.77;;;;;;;-0.57;100.00;97720.41;2080015;28;20220;-60
2022/01/11 02:53:46;;;;;;;39.72;17.67;;;;;;;-0.57;100.00;97724.72;2080024;28;20541;-60
2022/01/11 02:54:48;;;;;;;33.00;15.05;;;;;;;-0.55;100.00;97726.41;2079801;28;20209;-60
2022/01/11 02:55:50;;;;;;;30.13;15.27;;;;;;;-0.58;100.00;97736.75;2080021;28;20196;-60
2022/01/11 02:56:51;;;;;;;30.77;14.57;;;;;;;-0.54;100.00;97738.41;2080698;28;20198;-60
2022/01/11 02:57:54;;;;;;;35.47;14.35;;;;;;;-0.50;100.00;97736.69;2080658;28;20227;-60
2022/01/11 02:58:56;;;;;;;30.83;15.18;;;;;;;-0.53;100.00;97734.13;2080098;28;20217;-61
2022/01/11 02:59:57;;;;;;;29.70;13.60;;;;;;;-0.50;100.00;97728.97;2080524;28;20193;-60
2022/01/11 03:00:59;;;;;;;32.80;14.80;;;;;;;-0.67;100.00;97711.91;2077826;28;20201;-60
2022/01/11 03:02:01;;;;;;;26.05;13.65;;;;;;;-0.60;100.00;97723.88;2071859;28;20194;-60
2022/01/11 03:03:10;;;;;;;30.77;14.32;;;;;;;-0.54;100.00;97727.28;2072210;28;20653;-60
2022/01/11 03:04:13;;;;;;;32.33;13.93;;;;;;;-0.68;100.00;97705.06;2079015;28;20225;-60
2022/01/11 03:05:15;;;;;;;27.52;13.95;;;;;;;-0.58;100.00;97733.31;2080458;28;20201;-60
2022/01/11 03:06:17;;;;;;;25.75;14.80;;;;;;;-0.64;100.00;97727.34;2081545;28;20225;-62
2022/01/11 03:07:20;;;;;;;36.28;15.45;;;;;;;-0.60;100.00;97728.19;2079201;28;20197;-62
2022/01/11 03:08:24;;;;;;;27.33;14.38;;;;;;;-0.58;100.00;97728.16;2080599;28;20200;-62
2022/01/11 03:09:29;;;;;;;35.20;15.75;;;;;;;-0.64;100.00;97711.91;2079054;28;20590;-62
2022/01/11 03:10:34;;;;;;;29.75;14.43;;;;;;;-0.56;100.00;97731.59;2080236;28;20201;-62
2022/01/11 03:11:35;;;;;;;27.33;14.35;;;;;;;-0.61;100.00;97732.47;2082335;28;20197;-62
2022/01/11 03:12:37;;;;;;;33.88;13.20;;;;;;;-0.72;100.00;97735.97;2082659;28;20197;-63
2022/01/11 03:13:41;;;;;;;29.35;14.75;;;;;;;-0.79;100.00;97730.00;2081565;28;20196;-62
2022/01/11 03:14:43;;;;;;;29.83;15.25;;;;;;;-0.70;100.00;97735.09;2079926;28;20205;-62
2022/01/11 03:15:46;;;;;;;26.00;14.40;;;;;;;-0.73;100.00;97734.25;2082249;28;20203;-62
2022/01/11 03:16:48;;;;;;;29.30;15.30;;;;;;;-0.76;100.00;97726.56;2081690;28;20492;-62
2022/01/11 03:17:49;;;;;;;29.60;14.90;;;;;;;-0.72;100.00;97733.41;2073518;28;20200;-62
2022/01/11 03:18:50;;;;;;;29.67;13.82;;;;;;;-0.68;100.00;97727.38;2072907;28;20228;-62
2022/01/11 03:19:53;;;;;;;33.05;15.02;;;;;;;-1.01;100.00;97694.09;2082327;28;20201;-62
2022/01/11 03:20:55;;;;;;;29.98;15.68;;;;;;;-0.83;100.00;97736.03;2082326;28;20651;-62
2022/01/11 03:21:57;;;;;;;35.88;16.67;;;;;;;-0.91;100.00;97735.22;2082117;28;20200;-63
2022/01/11 03:22:59;;;;;;;31.95;16.30;;;;;;;-1.09;100.00;97711.28;2081629;28;20195;-62
2022/01/11 03:24:00;;;;;;;42.85;17.02;;;;;;;-1.25;100.00;97681.38;2080939;28;20220;-60
2022/01/11 03:25:05;;;;;;;35.50;16.27;;;;;;;-0.94;100.00;97733.53;2081529;28;20189;-60
2022/01/11 03:26:06;;;;;;;35.17;17.55;;;;;;;-1.13;100.00;97719.03;2080492;28;20534;-60
2022/01/11 03:27:08;;;;;;;32.47;15.77;;;;;;;-1.00;100.00;97738.66;2082228;28;20539;-60
2022/01/11 03:28:09;;;;;;;32.47;16.88;;;;;;;-1.01;100.00;97740.41;2082151;28;20204;-60
2022/01/11 03:29:11;;;;;;;38.28;18.55;;;;;;;-1.00;100.00;97748.94;2080561;28;20568;-60
2022/01/11 03:30:12;;;;;;;35.35;17.55;;;;;;;-1.03;100.00;97725.84;2081850;28;20197;-60
2022/01/11 03:31:14;;;;;;;38.72;19.13;;;;;;;-1.07;100.00;97721.56;2081132;28;20204;-60
2022/01/11 03:32:18;;;;;;;41.25;17.25;;;;;;;-1.01;100.00;97736.97;2082041;28;20200;-60
2022/01/11 03:33:39;;;;;;;37.40;18.20;;;;;;;-1.00;100.00;97747.25;2080361;28;20286;-60
2022/01/11 03:34:56;;;;;;;34.70;16.30;;;;;;;-0.94;99.90;97737.78;2079489;28;20283;-60
2022/01/11 03:36:14;;;;;;;44.72;20.52;;;;;;;-1.09;100.00;97744.72;2081180;28;20651;-60
2022/01/11 03:37:29;;;;;;;38.42;18.02;;;;;;;-1.16;100.00;97743.03;2072039;28;20201;-60
2022/01/11 03:38:33;;;;;;;38.60;18.30;;;;;;;-0.99;100.00;97750.69;2066931;28;20244;-60
2022/01/11 03:39:34;;;;;;;43.53;18.45;;;;;;;-1.36;100.00;97704.56;2073396;28;20805;-60
2022/01/11 03:40:36;;;;;;;42.38;17.45;;;;;;;-1.02;100.00;97751.56;2081559;28;20201;-60
2022/01/11 03:41:37;;;;;;;37.25;18.23;;;;;;;-1.04;99.98;97748.13;2082018;28;20533;-62
2022/01/11 03:42:39;;;;;;;38.65;18.23;;;;;;;-1.04;100.00;97747.25;2082214;28;20659;-62
2022/01/11 03:43:41;;;;;;;44.78;19.95;;;;;;;-1.15;100.00;97743.91;2081494;28;20201;-62
2022/01/11 03:44:43;;;;;;;35.38;18.00;;;;;;;-1.21;100.00;97740.47;2081593;28;20200;-62
2022/01/11 03:45:45;;;;;;;35.85;18.02;;;;;;;-1.13;100.00;97757.59;2081828;28;20197;-62
2022/01/11 03:46:46;;;;;;;36.00;19.02;;;;;;;-1.12;100.00;97737.00;2081909;28;20198;-62
2022/01/11 03:47:53;;;;;;;40.17;19.23;;;;;;;-1.09;100.00;97755.00;2081776;28;20247;-62
2022/01/11 03:48:55;;;;;;;33.55;18.73;;;;;;;-1.11;100.00;97745.59;2080499;28;20225;-62
2022/01/11 03:49:57;;;;;;;35.30;17.50;;;;;;;-1.02;100.00;97756.69;2081646;28;20193;-62
2022/01/11 03:50:59;;;;;;;32.72;16.58;;;;;;;-1.02;100.00;97755.81;2064113;28;20678;-62
2022/01/11 03:52:21;;;;;;;32.83;17.45;;;;;;;-0.99;100.00;97748.09;2060437;28;20202;-62
2022/01/11 03:53:33;;;;;;;38.88;17.35;;;;;;;-1.01;100.00;97760.97;2068463;28;20785;-62
2022/01/11 03:56:21;;;;;;;35.75;16.35;;;;;;;-0.90;100.00;97750.66;2080998;28;20220;-62
2022/01/11 03:57:31;;;;;;;32.72;16.50;;;;;;;-1.03;100.00;97754.97;2073082;28;20679;-63
2022/01/11 03:58:40;;;;;;;34.47;16.25;;;;;;;-1.27;100.00;97707.09;2072733;28;20307;-62
2022/01/11 03:59:58;;;;;;;34.90;17.27;;;;;;;-0.97;100.00;97748.09;2075135;28;20291;-62
2022/01/11 04:01:02;;;;;;;32.03;16.20;;;;;;;-0.82;100.00;97753.19;2072895;28;20634;-62
2022/01/11 04:02:18;;;;;;;32.63;16.20;;;;;;;-0.89;100.00;97748.91;2074541;28;20542;-62
2022/01/11 04:03:21;;;;;;;30.08;15.65;;;;;;;-0.85;100.00;97754.03;2081527;28;20247;-62
2022/01/11 04:04:22;;;;;;;29.17;14.95;;;;;;;-0.89;100.00;97756.63;2079588;28;20235;-62
2022/01/11 04:05:24;;;;;;;33.55;15.85;;;;;;;-0.84;100.00;97752.34;2081967;28;20205;-62
2022/01/11 04:06:27;;;;;;;38.65;16.33;;;;;;;-0.75;100.00;97751.41;2081551;28;20236;-62
2022/01/11 04:07:29;;;;;;;45.20;15.63;;;;;;;-0.57;100.00;97758.16;2073015;28;20190;-62
2022/01/11 04:08:30;;;;;;;46.88;17.90;;;;;;;-0.95;99.68;97754.94;2072931;28;20206;-61
2022/01/11 04:09:32;;;;;;;31.98;15.02;;;;;;;-0.96;100.00;97758.41;2081797;28;20209;-62
2022/01/11 04:10:33;;;;;;;35.88;18.30;;;;;;;-0.91;100.00;97750.66;2081866;28;20894;-62
2022/01/11 04:11:35;;;;;;;33.63;17.15;;;;;;;-0.84;100.00;97760.06;2081849;28;20652;-62
2022/01/11 04:12:37;;;;;;;36.85;17.25;;;;;;;-0.79;100.00;97760.88;2081787;28;20205;-62
2022/01/11 04:13:40;;;;;;;35.70;16.85;;;;;;;-0.91;100.00;97743.78;2081229;28;20227;-62
2022/01/11 04:14:42;;;;;;;44.47;18.13;;;;;;;-0.75;100.00;97764.28;2081782;28;20200;-62
2022/01/11 04:15:44;;;;;;;49.70;18.52;;;;;;;-0.73;100.00;97759.97;2080464;28;20664;-62
2022/01/11 04:16:46;;;;;;;53.90;18.83;;;;;;;-0.74;100.00;97755.72;2081861;28;20208;-62
2022/01/11 04:17:47;;;;;;;48.65;19.02;;;;;;;-0.67;100.00;97757.38;2081850;28;20197;-62
2022/01/11 04:18:49;;;;;;;72.88;21.83;;;;;;;-0.87;100.00;97744.63;2080674;28;20240;-62
2022/01/11 04:19:52;;;;;;;55.85;20.70;;;;;;;-0.77;100.00;97761.72;2081414;28;20197;-62
2022/01/11 04:20:54;;;;;;;53.10;20.58;;;;;;;-0.73;100.00;97752.25;2081127;28;20209;-61
2022/01/11 04:21:55;;;;;;;46.15;18.70;;;;;;;-0.75;100.00;97764.28;2072976;28;20538;-62
2022/01/11 04:22:57;;;;;;;75.88;22.38;;;;;;;-0.72;100.00;97759.97;2072470;28;20716;-62
2022/01/11 04:23:59;;;;;;;50.40;21.52;;;;;;;-0.71;100.00;97760.81;2081303;28;20244;-61
2022/01/11 04:25:00;;;;;;;63.03;22.45;;;;;;;-0.66;100.00;97757.38;2081669;28;20200;-62
2022/01/11 04:26:02;;;;;;;64.85;21.20;;;;;;;-0.66;100.00;97759.09;2081996;28;20193;-62
2022/01/11 04:27:05;;;;;;;76.57;24.20;;;;;;;-0.61;100.00;97762.47;2081602;28;20235;-62
2022/01/11 04:28:07;;;;;;;64.05;22.45;;;;;;;-0.62;100.00;97763.34;2081670;28;20208;-62
2022/01/11 04:29:08;;;;;;;60.03;21.70;;;;;;;-0.74;100.00;97717.97;2081191;28;20220;-62
2022/01/11 04:30:10;;;;;;;75.68;23.30;;;;;;;-0.56;100.00;97757.31;2081795;28;20201;-61
2022/01/11 04:31:12;;;;;;;179.95;27.25;;;;;;;-0.80;100.00;97757.44;2081295;28;20220;-62
2022/01/11 04:32:14;;;;;;;80.22;24.33;;;;;;;-0.88;100.00;97748.91;2081497;28;20291;-62
2022/01/11 04:33:16;;;;;;;61.20;21.85;;;;;;;-1.08;100.00;97682.16;2081762;28;20656;-62
2022/01/11 04:34:17;;;;;;;65.38;22.70;;;;;;;-0.82;100.00;97718.00;2081272;28;20224;-62
2022/01/11 04:35:19;;;;;;;109.65;24.80;;;;;;;-1.00;100.00;97733.53;2081675;28;20197;-62
2022/01/11 04:36:20;;;;;;;196.32;27.85;;;;;;;-0.97;100.00;97769.53;2081712;28;20201;-62
2022/01/11 04:37:22;;;;;;;187.25;26.42;;;;;;;-1.11;100.00;97759.31;2081635;28;20533;-61
2022/01/11 04:38:27;;;;;;;208.63;29.73;;;;;;;-1.05;100.00;97763.56;2081630;28;20204;-62
2022/01/11 04:39:29;;;;;;;123.43;26.17;;;;;;;-0.94;100.00;97763.50;2081089;28;20817;-62
2022/01/11 04:40:30;;;;;;;85.00;24.80;;;;;;;-0.84;100.00;97763.47;2079515;28;20196;-62
2022/01/11 04:41:32;;;;;;;71.20;23.20;;;;;;;-0.84;100.00;97766.03;2081532;28;20532;-62
2022/01/11 04:42:33;;;;;;;70.28;23.00;;;;;;;-0.81;100.00;97766.00;2080969;28;20205;-62
2022/01/11 04:43:35;;;;;;;68.20;24.05;;;;;;;-0.79;100.00;97763.44;2080313;28;20212;-62
2022/01/11 04:44:36;;;;;;;63.60;22.42;;;;;;;-0.93;100.00;97727.50;2081511;28;20604;-61
2022/01/11 04:45:38;;;;;;;70.70;24.25;;;;;;;-0.78;100.00;97762.59;2081569;28;20201;-62
2022/01/11 04:46:39;;;;;;;60.33;23.42;;;;;;;-0.72;100.00;97767.69;2081422;28;20193;-62
2022/01/11 04:47:41;;;;;;;214.20;31.63;;;;;;;-0.78;100.00;97762.59;2081490;28;20212;-62
2022/01/11 04:48:43;;;;;;;55.28;22.77;;;;;;;-0.59;100.00;97776.19;2081122;28;20710;-62
2022/01/11 04:49:44;;;;;;;62.42;22.60;;;;;;;-0.70;100.00;97778.84;2081535;28;20240;-62
2022/01/11 04:50:46;;;;;;;69.38;24.10;;;;;;;-0.73;100.00;97783.97;2081373;28;20211;-62
2022/01/11 04:51:48;;;;;;;64.63;24.17;;;;;;;-0.73;100.00;97758.25;2081196;28;20189;-62
2022/01/11 04:52:50;;;;;;;68.78;24.52;;;;;;;-0.75;100.00;97765.13;2081334;28;20216;-62